sensor_id;sensor_type;location;lat;lon;timestamp;P1;durP1;ratioP1;P2;durP2;ratioP2
23187;SDS011;11762;59.878;17.686;2022-10-28T06:26:29;31.57;;;5.10;;
23187;SDS011;11762;59.878;17.686;2022-10-28T06:29:16;24.80;;;5.17;;
23187;SDS011;11762;59.878;17.686;2022-10-28T06:32:05;22.67;;;4.40;;
23187;SDS011;11762;59.878;17.686;2022-10-28T06:34:55;19.40;;;5.67;;
23187;SDS011;11762;59.878;17.686;2022-10-28T06:37:43;19.77;;;4.73;;
23187;SDS011;11762;59.878;17.686;2022-10-28T06:40:30;26.27;;;5.03;;
23187;SDS011;11762;59.878;17.686;2022-10-28T06:43:19;19.80;;;4.50;;
23187;SDS011;11762;59.878;17.686;2022-10-28T06:46:06;23.43;;;5.37;;
23187;SDS011;11762;59.878;17.686;2022-10-28T06:48:53;19.60;;;4.43;;
23187;SDS011;11762;59.878;17.686;2022-10-28T06:51:41;26.40;;;5.13;;
23187;SDS011;11762;59.878;17.686;2022-10-28T06:54:28;20.30;;;4.90;;
23187;SDS011;11762;59.878;17.686;2022-10-28T06:57:15;20.27;;;4.10;;
23187;SDS011;11762;59.878;17.686;2022-10-28T07:00:04;22.20;;;5.60;;
23187;SDS011;11762;59.878;17.686;2022-10-28T07:02:53;25.13;;;5.27;;
23187;SDS011;11762;59.878;17.686;2022-10-28T07:05:40;24.13;;;4.80;;
23187;SDS011;11762;59.878;17.686;2022-10-28T07:08:28;25.73;;;5.13;;
23187;SDS011;11762;59.878;17.686;2022-10-28T07:11:15;21.63;;;5.60;;
23187;SDS011;11762;59.878;17.686;2022-10-28T07:14:03;18.30;;;5.53;;
23187;SDS011;11762;59.878;17.686;2022-10-28T07:16:52;25.77;;;5.70;;
23187;SDS011;11762;59.878;17.686;2022-10-28T07:19:39;18.80;;;4.97;;
23187;SDS011;11762;59.878;17.686;2022-10-28T07:22:26;19.87;;;4.60;;
23187;SDS011;11762;59.878;17.686;2022-10-28T07:25:15;15.17;;;3.90;;
23187;SDS011;11762;59.878;17.686;2022-10-28T07:28:02;20.83;;;4.63;;
23187;SDS011;11762;59.878;17.686;2022-10-28T07:30:50;24.07;;;4.50;;
23187;SDS011;11762;59.878;17.686;2022-10-28T07:33:39;22.97;;;5.47;;
23187;SDS011;11762;59.878;17.686;2022-10-28T07:36:26;24.60;;;5.50;;
23187;SDS011;11762;59.878;17.686;2022-10-28T07:39:14;14.47;;;4.37;;
23187;SDS011;11762;59.878;17.686;2022-10-28T07:42:01;16.20;;;4.83;;
23187;SDS011;11762;59.878;17.686;2022-10-28T07:44:49;17.50;;;4.70;;
23187;SDS011;11762;59.878;17.686;2022-10-28T07:47:36;22.17;;;4.57;;
23187;SDS011;11762;59.878;17.686;2022-10-28T07:50:25;18.60;;;4.20;;
23187;SDS011;11762;59.878;17.686;2022-10-28T07:53:12;16.40;;;4.03;;
23187;SDS011;11762;59.878;17.686;2022-10-28T07:56:00;16.87;;;4.07;;
23187;SDS011;11762;59.878;17.686;2022-10-28T07:58:50;16.23;;;4.40;;
23187;SDS011;11762;59.878;17.686;2022-10-28T08:01:37;19.47;;;3.57;;
23187;SDS011;11762;59.878;17.686;2022-10-28T08:04:27;19.10;;;4.00;;
23187;SDS011;11762;59.878;17.686;2022-10-28T08:07:17;16.67;;;4.07;;
23187;SDS011;11762;59.878;17.686;2022-10-28T08:10:05;16.93;;;3.77;;
23187;SDS011;11762;59.878;17.686;2022-10-28T08:12:54;17.77;;;4.33;;
23187;SDS011;11762;59.878;17.686;2022-10-28T08:15:42;14.10;;;3.87;;
23187;SDS011;11762;59.878;17.686;2022-10-28T08:18:29;22.43;;;4.53;;
23187;SDS011;11762;59.878;17.686;2022-10-28T08:21:16;14.77;;;3.87;;
23187;SDS011;11762;59.878;17.686;2022-10-28T08:24:06;21.37;;;4.07;;
23187;SDS011;11762;59.878;17.686;2022-10-28T08:26:53;9.57;;;3.37;;
23187;SDS011;11762;59.878;17.686;2022-10-28T08:29:40;13.47;;;4.00;;
23187;SDS011;11762;59.878;17.686;2022-10-28T08:32:28;11.37;;;4.47;;
23187;SDS011;11762;59.878;17.686;2022-10-28T08:35:15;14.73;;;3.90;;
23187;SDS011;11762;59.878;17.686;2022-10-28T08:38:02;15.03;;;4.23;;
23187;SDS011;11762;59.878;17.686;2022-10-28T08:40:54;10.70;;;3.87;;
23187;SDS011;11762;59.878;17.686;2022-10-28T08:43:53;15.43;;;4.33;;
23187;SDS011;11762;59.878;17.686;2022-10-28T08:47:12;13.00;;;3.80;;
23187;SDS011;11762;59.878;17.686;2022-10-28T08:50:08;20.10;;;4.33;;
23187;SDS011;11762;59.878;17.686;2022-10-28T08:52:58;16.93;;;3.97;;
23187;SDS011;11762;59.878;17.686;2022-10-28T08:55:49;13.80;;;4.10;;
23187;SDS011;11762;59.878;17.686;2022-10-28T08:58:42;10.10;;;3.83;;
23187;SDS011;11762;59.878;17.686;2022-10-28T09:01:34;15.20;;;4.00;;
23187;SDS011;11762;59.878;17.686;2022-10-28T09:04:27;15.23;;;4.40;;
23187;SDS011;11762;59.878;17.686;2022-10-28T09:07:23;9.43;;;3.73;;
23187;SDS011;11762;59.878;17.686;2022-10-28T09:10:12;7.80;;;3.47;;
23187;SDS011;11762;59.878;17.686;2022-10-28T09:13:03;7.67;;;3.50;;
23187;SDS011;11762;59.878;17.686;2022-10-28T09:15:59;12.23;;;3.60;;
23187;SDS011;11762;59.878;17.686;2022-10-28T09:18:54;13.27;;;3.97;;
23187;SDS011;11762;59.878;17.686;2022-10-28T09:21:45;11.60;;;3.40;;
23187;SDS011;11762;59.878;17.686;2022-10-28T09:24:37;10.53;;;3.40;;
23187;SDS011;11762;59.878;17.686;2022-10-28T09:27:35;11.23;;;3.90;;
23187;SDS011;11762;59.878;17.686;2022-10-28T09:30:47;9.67;;;3.50;;
23187;SDS011;11762;59.878;17.686;2022-10-28T09:33:44;8.97;;;3.83;;
23187;SDS011;11762;59.878;17.686;2022-10-28T09:36:41;11.47;;;3.77;;
23187;SDS011;11762;59.878;17.686;2022-10-28T09:39:33;10.53;;;3.80;;
23187;SDS011;11762;59.878;17.686;2022-10-28T09:42:26;11.83;;;4.03;;
23187;SDS011;11762;59.878;17.686;2022-10-28T09:45:16;10.30;;;3.97;;
23187;SDS011;11762;59.878;17.686;2022-10-28T09:48:19;11.63;;;4.20;;
23187;SDS011;11762;59.878;17.686;2022-10-28T09:51:14;12.13;;;3.70;;
23187;SDS011;11762;59.878;17.686;2022-10-28T09:54:10;10.43;;;4.50;;
23187;SDS011;11762;59.878;17.686;2022-10-28T09:56:58;10.77;;;3.83;;
23187;SDS011;11762;59.878;17.686;2022-10-28T09:59:46;14.53;;;4.87;;
23187;SDS011;11762;59.878;17.686;2022-10-28T10:02:33;9.97;;;3.23;;
23187;SDS011;11762;59.878;17.686;2022-10-28T10:05:26;7.60;;;3.73;;
23187;SDS011;11762;59.878;17.686;2022-10-28T10:08:16;11.97;;;3.87;;
23187;SDS011;11762;59.878;17.686;2022-10-28T10:11:04;11.60;;;3.30;;
23187;SDS011;11762;59.878;17.686;2022-10-28T10:13:58;10.30;;;3.80;;
23187;SDS011;11762;59.878;17.686;2022-10-28T10:16:51;13.00;;;3.83;;
23187;SDS011;11762;59.878;17.686;2022-10-28T10:19:57;5.57;;;3.33;;
23187;SDS011;11762;59.878;17.686;2022-10-28T10:22:48;8.07;;;3.67;;
23187;SDS011;11762;59.878;17.686;2022-10-28T10:25:35;9.07;;;3.37;;
23187;SDS011;11762;59.878;17.686;2022-10-28T10:28:23;14.90;;;3.93;;
23187;SDS011;11762;59.878;17.686;2022-10-28T10:31:15;11.67;;;4.07;;
23187;SDS011;11762;59.878;17.686;2022-10-28T10:34:05;11.30;;;3.60;;
23187;SDS011;11762;59.878;17.686;2022-10-28T10:37:12;13.30;;;3.77;;
23187;SDS011;11762;59.878;17.686;2022-10-28T10:40:15;7.47;;;3.27;;
23187;SDS011;11762;59.878;17.686;2022-10-28T10:43:14;11.23;;;3.83;;
23187;SDS011;11762;59.878;17.686;2022-10-28T10:46:11;13.77;;;3.97;;
23187;SDS011;11762;59.878;17.686;2022-10-28T10:49:05;7.80;;;3.20;;
23187;SDS011;11762;59.878;17.686;2022-10-28T10:51:59;8.73;;;3.80;;
23187;SDS011;11762;59.878;17.686;2022-10-28T10:54:59;7.93;;;3.37;;
23187;SDS011;11762;59.878;17.686;2022-10-28T10:57:51;9.73;;;3.63;;
23187;SDS011;11762;59.878;17.686;2022-10-28T11:00:43;11.13;;;3.50;;
23187;SDS011;11762;59.878;17.686;2022-10-28T11:03:33;6.73;;;2.97;;
23187;SDS011;11762;59.878;17.686;2022-10-28T11:06:24;7.77;;;3.43;;
23187;SDS011;11762;59.878;17.686;2022-10-28T11:09:16;13.60;;;3.20;;
23187;SDS011;11762;59.878;17.686;2022-10-28T11:12:12;8.60;;;3.27;;
23187;SDS011;11762;59.878;17.686;2022-10-28T11:15:03;7.87;;;3.37;;
23187;SDS011;11762;59.878;17.686;2022-10-28T11:18:14;8.93;;;3.33;;
23187;SDS011;11762;59.878;17.686;2022-10-28T11:21:06;8.47;;;3.13;;
23187;SDS011;11762;59.878;17.686;2022-10-28T11:24:11;11.00;;;3.57;;
23187;SDS011;11762;59.878;17.686;2022-10-28T11:27:11;7.20;;;2.70;;
23187;SDS011;11762;59.878;17.686;2022-10-28T11:30:07;8.47;;;2.70;;
23187;SDS011;11762;59.878;17.686;2022-10-28T11:33:00;10.83;;;3.80;;
23187;SDS011;11762;59.878;17.686;2022-10-28T11:35:56;8.87;;;3.70;;
23187;SDS011;11762;59.878;17.686;2022-10-28T11:41:59;19.57;;;6.00;;
23187;SDS011;11762;59.878;17.686;2022-10-28T11:44:55;9.00;;;3.80;;
23187;SDS011;11762;59.878;17.686;2022-10-28T11:47:52;6.57;;;3.50;;
23187;SDS011;11762;59.878;17.686;2022-10-28T11:50:57;12.27;;;4.07;;
23187;SDS011;11762;59.878;17.686;2022-10-28T11:53:57;9.80;;;3.63;;
23187;SDS011;11762;59.878;17.686;2022-10-28T11:57:00;10.10;;;4.63;;
23187;SDS011;11762;59.878;17.686;2022-10-28T12:00:01;10.93;;;4.13;;
23187;SDS011;11762;59.878;17.686;2022-10-28T12:03:03;9.00;;;4.07;;
23187;SDS011;11762;59.878;17.686;2022-10-28T12:06:11;11.60;;;3.90;;
23187;SDS011;11762;59.878;17.686;2022-10-28T12:09:09;8.53;;;3.97;;
23187;SDS011;11762;59.878;17.686;2022-10-28T12:12:05;8.10;;;3.67;;
23187;SDS011;11762;59.878;17.686;2022-10-28T12:15:02;9.67;;;3.60;;
23187;SDS011;11762;59.878;17.686;2022-10-28T12:18:05;10.57;;;4.43;;
23187;SDS011;11762;59.878;17.686;2022-10-28T12:21:01;8.20;;;4.23;;
23187;SDS011;11762;59.878;17.686;2022-10-28T12:23:54;14.13;;;4.20;;
23187;SDS011;11762;59.878;17.686;2022-10-28T12:26:44;8.70;;;3.73;;
23187;SDS011;11762;59.878;17.686;2022-10-28T12:29:34;14.40;;;4.30;;
23187;SDS011;11762;59.878;17.686;2022-10-28T12:32:26;11.13;;;4.20;;
23187;SDS011;11762;59.878;17.686;2022-10-28T12:35:18;10.97;;;4.43;;
23187;SDS011;11762;59.878;17.686;2022-10-28T12:38:11;15.13;;;5.20;;
23187;SDS011;11762;59.878;17.686;2022-10-28T12:41:05;9.37;;;3.97;;
23187;SDS011;11762;59.878;17.686;2022-10-28T12:43:59;8.93;;;4.03;;
23187;SDS011;11762;59.878;17.686;2022-10-28T12:46:53;11.30;;;4.07;;
23187;SDS011;11762;59.878;17.686;2022-10-28T12:49:56;10.23;;;4.40;;
23187;SDS011;11762;59.878;17.686;2022-10-28T12:52:54;8.43;;;3.97;;
23187;SDS011;11762;59.878;17.686;2022-10-28T12:55:48;11.47;;;3.90;;
23187;SDS011;11762;59.878;17.686;2022-10-28T12:58:40;10.13;;;4.40;;
23187;SDS011;11762;59.878;17.686;2022-10-28T13:01:37;7.93;;;3.70;;
23187;SDS011;11762;59.878;17.686;2022-10-28T13:04:25;8.53;;;4.30;;
23187;SDS011;11762;59.878;17.686;2022-10-28T13:07:17;9.90;;;4.20;;
23187;SDS011;11762;59.878;17.686;2022-10-28T13:10:24;10.87;;;4.60;;
23187;SDS011;11762;59.878;17.686;2022-10-28T13:13:35;13.20;;;4.10;;
23187;SDS011;11762;59.878;17.686;2022-10-28T13:16:36;10.43;;;4.33;;
23187;SDS011;11762;59.878;17.686;2022-10-28T13:19:42;15.80;;;5.07;;
23187;SDS011;11762;59.878;17.686;2022-10-28T13:22:45;18.53;;;5.93;;
23187;SDS011;11762;59.878;17.686;2022-10-28T13:25:45;12.73;;;5.07;;
23187;SDS011;11762;59.878;17.686;2022-10-28T13:28:40;11.73;;;4.80;;
23187;SDS011;11762;59.878;17.686;2022-10-28T13:31:34;13.90;;;4.90;;
23187;SDS011;11762;59.878;17.686;2022-10-28T13:34:28;13.07;;;5.40;;
23187;SDS011;11762;59.878;17.686;2022-10-28T13:37:19;11.57;;;4.90;;
23187;SDS011;11762;59.878;17.686;2022-10-28T13:40:19;12.97;;;5.00;;
23187;SDS011;11762;59.878;17.686;2022-10-28T13:43:17;17.13;;;5.10;;
23187;SDS011;11762;59.878;17.686;2022-10-28T13:46:06;12.57;;;4.50;;
23187;SDS011;11762;59.878;17.686;2022-10-28T13:48:53;11.97;;;5.20;;
23187;SDS011;11762;59.878;17.686;2022-10-28T13:52:17;8.43;;;4.00;;
23187;SDS011;11762;59.878;17.686;2022-10-28T13:55:22;12.43;;;4.67;;
23187;SDS011;11762;59.878;17.686;2022-10-28T13:58:19;9.27;;;4.73;;
23187;SDS011;11762;59.878;17.686;2022-10-28T14:04:25;8.40;;;4.53;;
23187;SDS011;11762;59.878;17.686;2022-10-28T14:07:20;13.23;;;5.00;;
23187;SDS011;11762;59.878;17.686;2022-10-28T14:10:12;15.63;;;4.60;;
23187;SDS011;11762;59.878;17.686;2022-10-28T14:13:05;18.97;;;6.03;;
23187;SDS011;11762;59.878;17.686;2022-10-28T14:19:23;15.40;;;5.73;;
23187;SDS011;11762;59.878;17.686;2022-10-28T14:22:10;14.90;;;5.27;;
23187;SDS011;11762;59.878;17.686;2022-10-28T14:24:57;13.13;;;5.10;;
23187;SDS011;11762;59.878;17.686;2022-10-28T14:27:45;14.00;;;5.33;;
23187;SDS011;11762;59.878;17.686;2022-10-28T14:30:32;11.43;;;4.83;;
23187;SDS011;11762;59.878;17.686;2022-10-28T14:33:22;13.07;;;5.30;;
23187;SDS011;11762;59.878;17.686;2022-10-28T14:36:14;10.97;;;4.50;;
23187;SDS011;11762;59.878;17.686;2022-10-28T14:39:22;14.43;;;5.00;;
23187;SDS011;11762;59.878;17.686;2022-10-28T14:42:36;12.40;;;5.17;;
23187;SDS011;11762;59.878;17.686;2022-10-28T14:45:39;17.37;;;4.97;;
23187;SDS011;11762;59.878;17.686;2022-10-28T14:48:49;14.13;;;5.47;;
23187;SDS011;11762;59.878;17.686;2022-10-28T14:51:39;16.90;;;5.57;;
23187;SDS011;11762;59.878;17.686;2022-10-28T14:54:31;14.20;;;5.93;;
23187;SDS011;11762;59.878;17.686;2022-10-28T14:57:25;13.83;;;4.73;;
23187;SDS011;11762;59.878;17.686;2022-10-28T15:00:15;13.53;;;4.93;;
23187;SDS011;11762;59.878;17.686;2022-10-28T15:03:06;16.17;;;5.50;;
23187;SDS011;11762;59.878;17.686;2022-10-28T15:06:01;13.03;;;5.47;;
23187;SDS011;11762;59.878;17.686;2022-10-28T15:09:06;13.53;;;4.53;;
23187;SDS011;11762;59.878;17.686;2022-10-28T15:12:04;13.73;;;5.43;;
23187;SDS011;11762;59.878;17.686;2022-10-28T15:14:54;13.60;;;5.53;;
23187;SDS011;11762;59.878;17.686;2022-10-28T15:17:42;11.07;;;4.80;;
23187;SDS011;11762;59.878;17.686;2022-10-28T15:20:30;11.97;;;4.87;;
23187;SDS011;11762;59.878;17.686;2022-10-28T15:23:21;11.10;;;5.27;;
23187;SDS011;11762;59.878;17.686;2022-10-28T15:26:08;12.87;;;4.70;;
23187;SDS011;11762;59.878;17.686;2022-10-28T15:28:57;13.40;;;5.60;;
23187;SDS011;11762;59.878;17.686;2022-10-28T15:32:02;14.07;;;5.33;;
23187;SDS011;11762;59.878;17.686;2022-10-28T15:34:56;11.77;;;6.17;;
23187;SDS011;11762;59.878;17.686;2022-10-28T15:37:43;11.53;;;5.50;;
23187;SDS011;11762;59.878;17.686;2022-10-28T15:40:32;14.17;;;5.63;;
23187;SDS011;11762;59.878;17.686;2022-10-28T15:43:23;10.17;;;4.47;;
23187;SDS011;11762;59.878;17.686;2022-10-28T15:46:13;10.07;;;4.57;;
23187;SDS011;11762;59.878;17.686;2022-10-28T15:49:02;9.93;;;4.90;;
23187;SDS011;11762;59.878;17.686;2022-10-28T15:52:00;10.10;;;4.50;;
23187;SDS011;11762;59.878;17.686;2022-10-28T15:55:27;9.83;;;4.77;;
23187;SDS011;11762;59.878;17.686;2022-10-28T15:58:32;8.70;;;4.43;;
23187;SDS011;11762;59.878;17.686;2022-10-28T16:01:28;6.50;;;4.53;;
23187;SDS011;11762;59.878;17.686;2022-10-28T16:04:41;10.60;;;5.03;;
23187;SDS011;11762;59.878;17.686;2022-10-28T16:07:29;8.57;;;4.63;;
23187;SDS011;11762;59.878;17.686;2022-10-28T16:10:17;6.77;;;3.90;;
23187;SDS011;11762;59.878;17.686;2022-10-28T16:13:04;9.30;;;5.20;;
23187;SDS011;11762;59.878;17.686;2022-10-28T16:15:54;9.77;;;5.47;;
23187;SDS011;11762;59.878;17.686;2022-10-28T16:18:45;7.60;;;4.97;;
23187;SDS011;11762;59.878;17.686;2022-10-28T16:21:35;6.80;;;4.50;;
23187;SDS011;11762;59.878;17.686;2022-10-28T16:24:24;6.43;;;4.67;;
23187;SDS011;11762;59.878;17.686;2022-10-28T16:27:18;13.13;;;6.80;;
23187;SDS011;11762;59.878;17.686;2022-10-28T16:30:08;8.80;;;4.60;;
23187;SDS011;11762;59.878;17.686;2022-10-28T16:32:57;8.80;;;5.90;;
23187;SDS011;11762;59.878;17.686;2022-10-28T16:35:45;8.57;;;4.90;;
23187;SDS011;11762;59.878;17.686;2022-10-28T16:38:32;7.83;;;5.27;;
23187;SDS011;11762;59.878;17.686;2022-10-28T16:41:20;7.93;;;4.90;;
23187;SDS011;11762;59.878;17.686;2022-10-28T16:44:08;11.90;;;4.20;;
23187;SDS011;11762;59.878;17.686;2022-10-28T16:47:07;9.20;;;4.47;;
23187;SDS011;11762;59.878;17.686;2022-10-28T16:49:58;7.40;;;3.20;;
23187;SDS011;11762;59.878;17.686;2022-10-28T16:52:45;5.90;;;3.40;;
23187;SDS011;11762;59.878;17.686;2022-10-28T16:55:32;10.77;;;4.07;;
23187;SDS011;11762;59.878;17.686;2022-10-28T16:58:20;10.80;;;5.77;;
23187;SDS011;11762;59.878;17.686;2022-10-28T17:01:07;9.30;;;5.07;;
23187;SDS011;11762;59.878;17.686;2022-10-28T17:03:55;7.07;;;4.70;;
23187;SDS011;11762;59.878;17.686;2022-10-28T17:06:43;8.80;;;5.03;;
23187;SDS011;11762;59.878;17.686;2022-10-28T17:09:31;11.80;;;5.53;;
23187;SDS011;11762;59.878;17.686;2022-10-28T17:12:19;11.07;;;7.20;;
23187;SDS011;11762;59.878;17.686;2022-10-28T17:15:07;12.77;;;6.93;;
23187;SDS011;11762;59.878;17.686;2022-10-28T17:17:56;10.47;;;6.93;;
23187;SDS011;11762;59.878;17.686;2022-10-28T17:20:43;13.13;;;7.30;;
23187;SDS011;11762;59.878;17.686;2022-10-28T17:23:32;11.00;;;6.20;;
23187;SDS011;11762;59.878;17.686;2022-10-28T17:26:19;13.50;;;6.43;;
23187;SDS011;11762;59.878;17.686;2022-10-28T17:29:08;8.73;;;6.27;;
23187;SDS011;11762;59.878;17.686;2022-10-28T17:31:55;9.50;;;5.40;;
23187;SDS011;11762;59.878;17.686;2022-10-28T17:34:42;8.17;;;6.20;;
23187;SDS011;11762;59.878;17.686;2022-10-28T17:37:30;11.80;;;6.77;;
23187;SDS011;11762;59.878;17.686;2022-10-28T17:40:19;10.63;;;6.33;;
23187;SDS011;11762;59.878;17.686;2022-10-28T17:43:06;10.53;;;5.90;;
23187;SDS011;11762;59.878;17.686;2022-10-28T17:46:01;9.73;;;5.70;;
23187;SDS011;11762;59.878;17.686;2022-10-28T17:48:49;11.03;;;6.07;;
23187;SDS011;11762;59.878;17.686;2022-10-28T17:51:37;8.93;;;6.40;;
23187;SDS011;11762;59.878;17.686;2022-10-28T17:54:24;11.07;;;7.20;;
23187;SDS011;11762;59.878;17.686;2022-10-28T17:57:13;9.67;;;5.90;;
23187;SDS011;11762;59.878;17.686;2022-10-28T18:00:00;10.13;;;6.43;;
23187;SDS011;11762;59.878;17.686;2022-10-28T18:02:48;13.13;;;6.83;;
23187;SDS011;11762;59.878;17.686;2022-10-28T18:05:35;10.00;;;5.63;;
23187;SDS011;11762;59.878;17.686;2022-10-28T18:08:23;7.70;;;5.63;;
23187;SDS011;11762;59.878;17.686;2022-10-28T18:11:10;7.17;;;5.17;;
23187;SDS011;11762;59.878;17.686;2022-10-28T18:14:02;11.03;;;6.00;;
23187;SDS011;11762;59.878;17.686;2022-10-28T18:16:49;13.77;;;6.97;;
23187;SDS011;11762;59.878;17.686;2022-10-28T18:19:37;13.37;;;6.87;;
23187;SDS011;11762;59.878;17.686;2022-10-28T18:22:24;9.67;;;6.30;;
23187;SDS011;11762;59.878;17.686;2022-10-28T18:25:11;13.97;;;6.30;;
23187;SDS011;11762;59.878;17.686;2022-10-28T18:27:59;11.73;;;6.63;;
23187;SDS011;11762;59.878;17.686;2022-10-28T18:30:50;10.73;;;7.70;;
23187;SDS011;11762;59.878;17.686;2022-10-28T18:33:38;9.70;;;6.57;;
23187;SDS011;11762;59.878;17.686;2022-10-28T18:36:26;9.57;;;6.27;;
23187;SDS011;11762;59.878;17.686;2022-10-28T18:39:15;9.30;;;5.87;;
23187;SDS011;11762;59.878;17.686;2022-10-28T18:42:02;14.40;;;6.07;;
23187;SDS011;11762;59.878;17.686;2022-10-28T18:44:49;12.47;;;6.23;;
23187;SDS011;11762;59.878;17.686;2022-10-28T18:47:44;10.53;;;5.50;;
23187;SDS011;11762;59.878;17.686;2022-10-28T18:50:31;9.40;;;4.93;;
23187;SDS011;11762;59.878;17.686;2022-10-28T18:53:19;11.60;;;5.50;;
23187;SDS011;11762;59.878;17.686;2022-10-28T18:56:07;8.33;;;5.33;;
23187;SDS011;11762;59.878;17.686;2022-10-28T18:58:56;8.47;;;5.07;;
23187;SDS011;11762;59.878;17.686;2022-10-28T19:01:44;9.50;;;5.40;;
23187;SDS011;11762;59.878;17.686;2022-10-28T19:04:34;11.23;;;5.67;;
23187;SDS011;11762;59.878;17.686;2022-10-28T19:07:21;9.23;;;5.43;;
23187;SDS011;11762;59.878;17.686;2022-10-28T19:10:09;9.43;;;5.33;;
23187;SDS011;11762;59.878;17.686;2022-10-28T19:12:57;9.80;;;5.47;;
23187;SDS011;11762;59.878;17.686;2022-10-28T19:15:45;7.33;;;4.70;;
23187;SDS011;11762;59.878;17.686;2022-10-28T19:18:32;8.87;;;5.03;;
23187;SDS011;11762;59.878;17.686;2022-10-28T19:21:24;8.30;;;4.20;;
23187;SDS011;11762;59.878;17.686;2022-10-28T19:24:12;5.93;;;4.07;;
23187;SDS011;11762;59.878;17.686;2022-10-28T19:26:59;6.67;;;4.53;;
23187;SDS011;11762;59.878;17.686;2022-10-28T19:29:46;8.47;;;4.40;;
23187;SDS011;11762;59.878;17.686;2022-10-28T19:32:34;6.93;;;4.23;;
23187;SDS011;11762;59.878;17.686;2022-10-28T19:35:23;6.97;;;4.50;;
23187;SDS011;11762;59.878;17.686;2022-10-28T19:38:12;7.50;;;4.33;;
23187;SDS011;11762;59.878;17.686;2022-10-28T19:41:00;6.53;;;4.60;;
23187;SDS011;11762;59.878;17.686;2022-10-28T19:43:51;8.07;;;4.03;;
23187;SDS011;11762;59.878;17.686;2022-10-28T19:46:39;7.37;;;4.30;;
23187;SDS011;11762;59.878;17.686;2022-10-28T19:49:28;8.33;;;4.17;;
23187;SDS011;11762;59.878;17.686;2022-10-28T19:52:16;9.33;;;4.57;;
23187;SDS011;11762;59.878;17.686;2022-10-28T19:55:05;7.33;;;4.60;;
23187;SDS011;11762;59.878;17.686;2022-10-28T19:57:53;6.13;;;4.30;;
23187;SDS011;11762;59.878;17.686;2022-10-28T20:00:40;7.87;;;4.67;;
23187;SDS011;11762;59.878;17.686;2022-10-28T20:03:27;9.13;;;4.93;;
23187;SDS011;11762;59.878;17.686;2022-10-28T20:06:15;7.13;;;4.57;;
23187;SDS011;11762;59.878;17.686;2022-10-28T20:09:04;6.83;;;4.73;;
23187;SDS011;11762;59.878;17.686;2022-10-28T20:11:53;8.63;;;4.60;;
23187;SDS011;11762;59.878;17.686;2022-10-28T20:14:41;8.53;;;4.37;;
23187;SDS011;11762;59.878;17.686;2022-10-28T20:17:28;5.97;;;4.20;;
23187;SDS011;11762;59.878;17.686;2022-10-28T20:20:15;6.80;;;4.47;;
23187;SDS011;11762;59.878;17.686;2022-10-28T20:23:03;8.30;;;4.97;;
23187;SDS011;11762;59.878;17.686;2022-10-28T20:25:50;6.90;;;4.47;;
23187;SDS011;11762;59.878;17.686;2022-10-28T20:28:39;6.17;;;4.43;;
23187;SDS011;11762;59.878;17.686;2022-10-28T20:31:28;6.73;;;4.70;;
23187;SDS011;11762;59.878;17.686;2022-10-28T20:34:16;10.47;;;4.27;;
23187;SDS011;11762;59.878;17.686;2022-10-28T20:37:04;5.97;;;4.33;;
23187;SDS011;11762;59.878;17.686;2022-10-28T20:39:51;7.50;;;4.20;;
23187;SDS011;11762;59.878;17.686;2022-10-28T20:42:39;7.63;;;4.67;;
23187;SDS011;11762;59.878;17.686;2022-10-28T20:45:27;6.23;;;3.83;;
23187;SDS011;11762;59.878;17.686;2022-10-28T20:48:15;7.87;;;4.30;;
23187;SDS011;11762;59.878;17.686;2022-10-28T20:51:02;5.87;;;4.13;;
23187;SDS011;11762;59.878;17.686;2022-10-28T20:53:50;6.17;;;3.70;;
23187;SDS011;11762;59.878;17.686;2022-10-28T20:56:37;8.97;;;3.93;;
23187;SDS011;11762;59.878;17.686;2022-10-28T20:59:26;5.23;;;3.27;;
23187;SDS011;11762;59.878;17.686;2022-10-28T21:02:15;10.27;;;4.10;;
23187;SDS011;11762;59.878;17.686;2022-10-28T21:05:03;5.20;;;3.47;;
23187;SDS011;11762;59.878;17.686;2022-10-28T21:07:50;5.87;;;3.83;;
23187;SDS011;11762;59.878;17.686;2022-10-28T21:10:39;4.93;;;2.97;;
23187;SDS011;11762;59.878;17.686;2022-10-28T21:13:26;5.67;;;3.70;;
23187;SDS011;11762;59.878;17.686;2022-10-28T21:16:14;4.63;;;3.47;;
23187;SDS011;11762;59.878;17.686;2022-10-28T21:19:03;7.17;;;3.23;;
23187;SDS011;11762;59.878;17.686;2022-10-28T21:21:50;4.80;;;3.60;;
23187;SDS011;11762;59.878;17.686;2022-10-28T21:24:37;4.43;;;3.33;;
23187;SDS011;11762;59.878;17.686;2022-10-28T21:27:25;5.87;;;3.50;;
23187;SDS011;11762;59.878;17.686;2022-10-28T21:30:12;5.33;;;3.70;;
23187;SDS011;11762;59.878;17.686;2022-10-28T21:33:00;6.03;;;3.20;;
23187;SDS011;11762;59.878;17.686;2022-10-28T21:35:54;9.70;;;3.77;;
23187;SDS011;11762;59.878;17.686;2022-10-28T21:38:42;3.93;;;2.80;;
23187;SDS011;11762;59.878;17.686;2022-10-28T21:41:30;4.93;;;3.47;;
23187;SDS011;11762;59.878;17.686;2022-10-28T21:44:17;4.90;;;2.93;;
23187;SDS011;11762;59.878;17.686;2022-10-28T21:47:04;4.27;;;3.13;;
23187;SDS011;11762;59.878;17.686;2022-10-28T21:49:52;4.00;;;2.73;;
23187;SDS011;11762;59.878;17.686;2022-10-28T21:52:41;4.07;;;2.63;;
23187;SDS011;11762;59.878;17.686;2022-10-28T21:55:28;3.63;;;2.13;;
23187;SDS011;11762;59.878;17.686;2022-10-28T21:58:16;3.70;;;2.00;;
23187;SDS011;11762;59.878;17.686;2022-10-28T22:01:04;3.00;;;2.20;;
23187;SDS011;11762;59.878;17.686;2022-10-28T22:03:53;3.20;;;2.00;;
23187;SDS011;11762;59.878;17.686;2022-10-28T22:06:41;5.43;;;2.07;;
23187;SDS011;11762;59.878;17.686;2022-10-28T22:09:29;8.87;;;2.03;;
23187;SDS011;11762;59.878;17.686;2022-10-28T22:12:17;4.10;;;1.97;;
23187;SDS011;11762;59.878;17.686;2022-10-28T22:15:05;4.83;;;1.80;;
23187;SDS011;11762;59.878;17.686;2022-10-28T22:17:53;2.33;;;1.60;;
23187;SDS011;11762;59.878;17.686;2022-10-28T22:20:40;2.93;;;1.47;;
23187;SDS011;11762;59.878;17.686;2022-10-28T22:23:27;4.60;;;1.20;;
23187;SDS011;11762;59.878;17.686;2022-10-28T22:26:16;2.93;;;1.30;;
23187;SDS011;11762;59.878;17.686;2022-10-28T22:29:05;2.10;;;1.30;;
23187;SDS011;11762;59.878;17.686;2022-10-28T22:31:52;2.23;;;1.20;;
23187;SDS011;11762;59.878;17.686;2022-10-28T22:34:40;6.50;;;1.70;;
23187;SDS011;11762;59.878;17.686;2022-10-28T22:37:27;4.80;;;1.40;;
23187;SDS011;11762;59.878;17.686;2022-10-28T22:40:14;2.30;;;1.07;;
23187;SDS011;11762;59.878;17.686;2022-10-28T22:43:03;2.40;;;1.00;;
23187;SDS011;11762;59.878;17.686;2022-10-28T22:45:54;3.20;;;1.20;;
23187;SDS011;11762;59.878;17.686;2022-10-28T22:48:41;1.70;;;0.83;;
23187;SDS011;11762;59.878;17.686;2022-10-28T22:51:29;3.47;;;0.80;;
23187;SDS011;11762;59.878;17.686;2022-10-28T22:54:16;1.50;;;0.90;;
23187;SDS011;11762;59.878;17.686;2022-10-28T22:57:04;3.87;;;0.77;;
23187;SDS011;11762;59.878;17.686;2022-10-28T22:59:52;2.23;;;0.80;;
23187;SDS011;11762;59.878;17.686;2022-10-28T23:02:40;3.93;;;0.80;;
23187;SDS011;11762;59.878;17.686;2022-10-28T23:05:27;1.30;;;0.70;;
23187;SDS011;11762;59.878;17.686;2022-10-28T23:08:14;1.30;;;0.70;;
23187;SDS011;11762;59.878;17.686;2022-10-28T23:11:02;0.83;;;0.50;;
23187;SDS011;11762;59.878;17.686;2022-10-28T23:13:49;1.93;;;0.93;;
23187;SDS011;11762;59.878;17.686;2022-10-28T23:16:39;1.40;;;0.77;;
23187;SDS011;11762;59.878;17.686;2022-10-28T23:19:26;2.07;;;0.70;;
23187;SDS011;11762;59.878;17.686;2022-10-28T23:22:13;1.20;;;0.80;;
23187;SDS011;11762;59.878;17.686;2022-10-28T23:25:01;1.97;;;0.70;;